createdAt,value
2023-04-15T00:01:29.150Z,4.07
2023-04-15T00:04:03.080Z,4.00
2023-04-15T00:06:29.843Z,3.97
2023-04-15T00:09:04.034Z,4.17
2023-04-15T00:11:30.738Z,4.37
2023-04-15T00:14:04.948Z,4.43
2023-04-15T00:16:31.758Z,4.17
2023-04-15T00:18:58.694Z,4.30
2023-04-15T00:21:32.191Z,4.10
2023-04-15T00:24:04.997Z,4.13
2023-04-15T00:26:31.654Z,4.67
2023-04-15T00:29:05.088Z,4.50
2023-04-15T00:31:32.312Z,4.17
2023-04-15T00:33:59.947Z,5.07
2023-04-15T00:36:33.081Z,4.27
2023-04-15T00:39:00.216Z,4.70
2023-04-15T00:41:33.977Z,4.37
2023-04-15T00:44:08.188Z,4.97
2023-04-15T00:46:45.992Z,4.77
2023-04-15T00:49:13.440Z,4.63
2023-04-15T00:51:46.967Z,5.20
2023-04-15T00:54:14.092Z,5.13
2023-04-15T00:56:47.957Z,5.00
2023-04-15T00:59:15.304Z,6.00
2023-04-15T01:01:49.137Z,5.37
2023-04-15T01:04:22.632Z,5.53
2023-04-15T01:06:56.063Z,5.30
2023-04-15T01:09:22.921Z,5.57
2023-04-15T01:11:49.695Z,5.90
2023-04-15T01:14:23.040Z,6.10
2023-04-15T01:16:49.887Z,5.83
2023-04-15T01:19:24.987Z,5.83
2023-04-15T01:21:52.167Z,6.13
2023-04-15T01:24:26.048Z,6.00
2023-04-15T01:26:52.903Z,5.60
2023-04-15T01:29:27.040Z,5.57
2023-04-15T01:31:56.229Z,5.73
2023-04-15T01:34:30.047Z,5.07
2023-04-15T01:36:56.802Z,5.77
2023-04-15T01:39:23.710Z,5.70
2023-04-15T01:41:57.029Z,5.77
2023-04-15T01:44:30.167Z,5.80
2023-04-15T01:47:03.047Z,5.53
2023-04-15T01:49:29.904Z,5.73
2023-04-15T01:52:03.018Z,6.00
2023-04-15T01:54:29.910Z,5.87
2023-04-15T01:57:04.004Z,6.53
2023-04-15T01:59:31.605Z,6.03
2023-04-15T02:02:05.084Z,6.43
2023-04-15T02:04:38.012Z,6.20
2023-04-15T02:07:04.790Z,6.10
2023-04-15T02:09:38.015Z,6.10
2023-04-15T02:12:06.166Z,6.00
2023-04-15T02:14:39.028Z,6.13
2023-04-15T02:17:08.767Z,5.70
2023-04-15T02:19:43.090Z,6.27
2023-04-15T02:22:11.669Z,6.07
2023-04-15T02:24:45.014Z,6.20
2023-04-15T02:27:18.372Z,5.80
2023-04-15T02:29:53.043Z,6.10
2023-04-15T02:32:20.385Z,6.10
2023-04-15T02:34:54.053Z,5.97
2023-04-15T02:37:21.146Z,6.00
2023-04-15T02:39:48.010Z,6.33
2023-04-15T02:42:21.110Z,6.50
2023-04-15T02:44:47.933Z,6.00
2023-04-15T02:47:22.046Z,6.30
2023-04-15T02:49:48.829Z,6.30
2023-04-15T02:52:22.011Z,6.47
2023-04-15T02:54:48.875Z,6.40
2023-04-15T02:57:22.046Z,6.27
2023-04-15T02:59:48.803Z,6.10
2023-04-15T03:02:22.211Z,5.93
2023-04-15T03:04:56.057Z,5.87
2023-04-15T03:07:29.078Z,6.20
2023-04-15T03:09:55.782Z,6.60
2023-04-15T03:12:29.084Z,6.50
2023-04-15T03:15:02.108Z,6.47
2023-04-15T03:17:28.901Z,6.90
2023-04-15T03:20:02.034Z,6.43
2023-04-15T03:22:28.723Z,6.27
2023-04-15T03:25:02.060Z,6.63
2023-04-15T03:27:28.789Z,6.60
2023-04-15T03:30:03.129Z,7.13
2023-04-15T03:32:29.839Z,6.77
2023-04-15T03:34:56.540Z,6.77
2023-04-15T03:37:30.094Z,6.67
2023-04-15T03:39:56.884Z,6.30
2023-04-15T03:42:30.102Z,7.07
2023-04-15T03:45:04.401Z,7.07
2023-04-15T03:47:38.172Z,7.70
2023-04-15T03:50:05.298Z,7.30
2023-04-15T03:52:38.068Z,7.97
2023-04-15T03:55:05.461Z,7.23
2023-04-15T03:57:39.130Z,7.73
2023-04-15T04:00:07.268Z,7.63
2023-04-15T04:02:40.274Z,8.23
2023-04-15T04:05:07.299Z,8.83
2023-04-15T04:07:40.024Z,9.03
2023-04-15T04:10:07.336Z,7.90
2023-04-15T04:12:34.005Z,7.90
2023-04-15T04:15:07.090Z,8.73
2023-04-15T04:17:40.242Z,8.03
2023-04-15T04:20:14.094Z,8.43
2023-04-15T04:22:41.550Z,8.30
2023-04-15T04:25:17.135Z,8.63
2023-04-15T04:27:43.828Z,8.47
2023-04-15T04:30:17.147Z,8.73
2023-04-15T04:32:43.967Z,8.40
2023-04-15T04:35:18.179Z,8.20
2023-04-15T04:37:45.048Z,8.63
2023-04-15T04:40:35.224Z,9.67
2023-04-15T04:43:15.092Z,8.20
2023-04-15T04:45:48.240Z,8.90
2023-04-15T04:48:21.086Z,9.07
2023-04-15T04:50:54.135Z,8.23
2023-04-15T04:53:20.890Z,8.70
2023-04-15T04:55:54.055Z,8.93
2023-04-15T04:58:20.837Z,9.37
2023-04-15T05:00:54.114Z,9.40
2023-04-15T05:03:27.243Z,9.13
2023-04-15T05:06:01.123Z,9.37
2023-04-15T05:08:34.293Z,8.87
2023-04-15T05:11:01.155Z,8.90
2023-04-15T05:13:34.230Z,9.53
2023-04-15T05:16:07.150Z,8.53
2023-04-15T05:18:41.154Z,9.10
2023-04-15T05:21:07.900Z,8.97
2023-04-15T05:23:34.808Z,9.70
2023-04-15T05:26:08.072Z,10.03
2023-04-15T05:28:41.159Z,9.60
2023-04-15T05:31:15.186Z,10.43
2023-04-15T05:33:42.155Z,9.60
2023-04-15T05:36:15.080Z,10.20
2023-04-15T05:38:42.300Z,10.20
2023-04-15T05:41:18.395Z,11.00
2023-04-15T05:43:52.637Z,10.97
2023-04-15T05:46:26.126Z,11.00
2023-04-15T05:48:54.660Z,10.60
2023-04-15T05:51:28.166Z,11.93
2023-04-15T05:53:54.805Z,11.00
2023-04-15T05:56:28.179Z,11.43
2023-04-15T05:58:54.960Z,11.97
2023-04-15T06:01:29.208Z,11.90
2023-04-15T06:03:56.458Z,11.37
2023-04-15T06:06:30.154Z,12.47
2023-04-15T06:08:57.692Z,13.10
2023-04-15T06:11:31.212Z,12.67
2023-04-15T06:13:58.056Z,13.77
2023-04-15T06:16:31.287Z,14.27
2023-04-15T06:19:04.118Z,13.50
2023-04-15T06:21:31.736Z,12.93
2023-04-15T06:24:07.212Z,12.53
2023-04-15T06:26:33.983Z,13.70
2023-04-15T06:29:07.101Z,13.10
2023-04-15T06:31:34.015Z,12.57
2023-04-15T06:34:07.177Z,12.73
2023-04-15T06:36:34.034Z,13.73
2023-04-15T06:39:08.142Z,12.40
2023-04-15T06:41:42.077Z,12.83
2023-04-15T06:44:22.152Z,12.73
2023-04-15T06:46:48.974Z,11.60
2023-04-15T06:49:22.164Z,13.10
2023-04-15T06:51:55.160Z,11.83
2023-04-15T06:54:21.955Z,11.87
2023-04-15T06:56:55.163Z,11.83
2023-04-15T06:59:21.916Z,11.80
2023-04-15T07:01:55.120Z,12.90
2023-04-15T07:04:21.890Z,11.43
2023-04-15T07:06:55.164Z,11.70
2023-04-15T07:09:23.273Z,11.60
2023-04-15T07:11:56.119Z,11.85
2023-04-15T07:14:22.937Z,11.57
2023-04-15T07:16:56.162Z,12.00
2023-04-15T07:19:30.186Z,11.32
2023-04-15T07:22:03.240Z,10.90
2023-04-15T07:24:37.352Z,11.73
2023-04-15T07:27:04.341Z,10.95
2023-04-15T07:29:38.133Z,11.65
2023-04-15T07:32:05.208Z,10.85
2023-04-15T07:34:38.230Z,11.75
2023-04-15T07:37:04.870Z,11.35
2023-04-15T07:39:38.176Z,11.80
2023-04-15T07:42:11.166Z,11.90
2023-04-15T07:44:51.150Z,11.48
2023-04-15T07:47:17.843Z,11.27
2023-04-15T07:49:51.163Z,11.38
2023-04-15T07:52:24.243Z,10.50
2023-04-15T07:54:51.246Z,10.45
2023-04-15T07:57:24.167Z,10.90
2023-04-15T07:59:50.846Z,10.20
2023-04-15T08:02:24.292Z,10.20
2023-04-15T08:04:51.140Z,11.60
2023-04-15T08:07:25.216Z,11.60
2023-04-15T08:09:51.994Z,10.20
2023-04-15T08:12:25.211Z,11.45
2023-04-15T08:14:52.364Z,10.15
2023-04-15T08:17:19.072Z,10.23
2023-04-15T08:19:52.179Z,9.63
2023-04-15T08:22:19.685Z,9.90
2023-04-15T08:24:54.166Z,9.23
2023-04-15T08:27:20.885Z,8.52
2023-04-15T08:29:54.219Z,8.57
2023-04-15T08:32:21.485Z,7.10
2023-04-15T08:34:55.276Z,7.60
2023-04-15T08:37:23.173Z,7.00
2023-04-15T08:39:57.286Z,6.57
2023-04-15T08:42:37.688Z,6.70
2023-04-15T08:45:12.269Z,6.65
2023-04-15T08:47:48.244Z,7.35
2023-04-15T08:50:23.208Z,6.97
2023-04-15T08:52:56.267Z,6.85
2023-04-15T08:55:30.241Z,6.80
2023-04-15T08:57:57.592Z,6.20
2023-04-15T09:00:31.406Z,6.30
2023-04-15T09:03:06.318Z,6.55
2023-04-15T09:05:34.529Z,5.70
2023-04-15T09:08:09.219Z,6.13
2023-04-15T09:10:37.029Z,5.78
2023-04-15T09:13:11.291Z,5.85
2023-04-15T09:15:40.695Z,5.60
2023-04-15T09:18:14.283Z,5.70
2023-04-15T09:20:45.370Z,4.97
2023-04-15T09:23:21.239Z,5.13
2023-04-15T09:25:49.455Z,5.47
2023-04-15T09:28:31.190Z,4.68
2023-04-15T09:31:08.247Z,4.40
2023-04-15T09:33:41.229Z,4.70
2023-04-15T09:36:08.136Z,4.90
2023-04-15T09:38:41.301Z,4.22
2023-04-15T09:41:18.927Z,4.53
2023-04-15T09:43:59.286Z,4.28
2023-04-15T09:46:59.235Z,4.40
2023-04-15T09:49:26.188Z,4.40
2023-04-15T09:52:06.504Z,4.70
2023-04-15T09:54:38.995Z,5.53
2023-04-15T09:57:16.240Z,4.78
2023-04-15T09:59:43.024Z,4.93
2023-04-15T10:02:18.391Z,4.88
2023-04-15T10:04:45.852Z,4.88
2023-04-15T10:07:19.290Z,4.45
2023-04-15T10:09:47.177Z,4.10
2023-04-15T10:12:23.264Z,3.92
2023-04-15T10:14:56.593Z,4.15
2023-04-15T10:17:31.817Z,3.70
2023-04-15T10:20:09.567Z,3.95
2023-04-15T10:22:44.299Z,3.70
2023-04-15T10:25:12.372Z,3.88
2023-04-15T10:27:49.280Z,3.00
2023-04-15T10:30:23.357Z,3.65
2023-04-15T10:32:50.650Z,3.97
2023-04-15T10:35:25.343Z,3.05
2023-04-15T10:37:52.088Z,2.80
2023-04-15T10:40:39.318Z,3.13
2023-04-15T10:43:39.284Z,2.90
2023-04-15T10:46:13.295Z,3.28
2023-04-15T10:48:46.947Z,3.08
2023-04-15T10:51:21.274Z,3.33
2023-04-15T10:53:48.350Z,2.80
2023-04-15T10:56:24.259Z,3.33
2023-04-15T10:58:51.392Z,3.05
2023-04-15T11:01:30.406Z,3.72
2023-04-15T11:03:57.283Z,3.17
2023-04-15T11:06:51.271Z,3.30
2023-04-15T11:09:41.252Z,2.75
2023-04-15T11:12:09.987Z,2.88
2023-04-15T11:14:47.252Z,2.80
2023-04-15T11:17:14.001Z,3.30
2023-04-15T11:19:47.257Z,3.17
2023-04-15T11:22:14.027Z,6.20
2023-04-15T11:24:57.287Z,22.92
2023-04-15T11:27:24.262Z,3.42
2023-04-15T11:29:57.352Z,3.00
2023-04-15T11:32:24.207Z,3.00
2023-04-15T11:34:59.278Z,2.65
2023-04-15T11:37:30.349Z,2.83
2023-04-15T11:40:03.286Z,2.90
2023-04-15T11:42:39.449Z,2.47
2023-04-15T11:45:23.335Z,2.58
2023-04-15T11:47:50.259Z,2.70
2023-04-15T11:50:24.384Z,2.53
2023-04-15T11:52:59.096Z,2.60
2023-04-15T11:55:33.522Z,2.88
2023-04-15T11:58:17.101Z,2.80
2023-04-15T12:01:07.447Z,2.55
2023-04-15T12:03:38.757Z,2.50
2023-04-15T12:06:32.357Z,2.55
2023-04-15T12:09:00.551Z,2.60
2023-04-15T12:11:33.431Z,2.90
2023-04-15T12:14:09.572Z,2.55
2023-04-15T12:16:48.469Z,2.63
2023-04-15T12:19:36.494Z,2.60
2023-04-15T12:22:17.283Z,2.40
2023-04-15T12:24:48.043Z,2.42
2023-04-15T12:27:33.342Z,2.58
2023-04-15T12:30:06.627Z,2.67
2023-04-15T12:32:43.633Z,2.85
2023-04-15T12:35:10.669Z,2.75
2023-04-15T12:37:44.369Z,2.70
2023-04-15T12:40:11.697Z,2.95
2023-04-15T12:42:38.404Z,2.53
2023-04-15T12:45:12.423Z,14.27
2023-04-15T12:47:45.439Z,2.72
2023-04-15T12:50:12.174Z,2.58
2023-04-15T12:52:45.348Z,2.50
2023-04-15T12:55:12.467Z,2.40
2023-04-15T12:57:46.361Z,2.00
2023-04-15T13:00:20.297Z,2.78
2023-04-15T13:02:47.340Z,2.22
2023-04-15T13:05:22.435Z,2.40
2023-04-15T13:07:49.115Z,2.63
2023-04-15T13:10:22.385Z,8.68
2023-04-15T13:12:50.731Z,3.85
2023-04-15T13:15:20.798Z,2.58
2023-04-15T13:17:54.400Z,2.10
2023-04-15T13:20:21.439Z,2.58
2023-04-15T13:22:55.369Z,2.30
2023-04-15T13:25:22.410Z,2.47
2023-04-15T13:27:56.311Z,2.45
2023-04-15T13:30:23.066Z,2.50
2023-04-15T13:32:57.466Z,2.50
2023-04-15T13:35:24.338Z,2.63
2023-04-15T13:37:57.334Z,2.60
2023-04-15T13:40:24.109Z,2.70
2023-04-15T13:43:05.351Z,3.38
2023-04-15T13:45:39.283Z,17.10
2023-04-15T13:48:13.365Z,5.07
2023-04-15T13:50:48.417Z,2.58
2023-04-15T13:53:21.366Z,2.75
2023-04-15T13:56:00.791Z,2.47
2023-04-15T13:58:34.534Z,2.60
2023-04-15T14:01:03.258Z,2.88
2023-04-15T14:03:38.643Z,2.80
2023-04-15T14:06:13.390Z,2.80
2023-04-15T14:08:40.263Z,2.70
2023-04-15T14:11:13.368Z,2.72
2023-04-15T14:13:40.281Z,2.65
2023-04-15T14:16:13.426Z,2.88
2023-04-15T14:18:40.727Z,2.90
2023-04-15T14:21:14.408Z,2.70
2023-04-15T14:23:41.290Z,2.60
2023-04-15T14:26:14.447Z,2.20
2023-04-15T14:28:41.525Z,2.40
2023-04-15T14:31:14.481Z,2.58
2023-04-15T14:33:41.734Z,1.98
2023-04-15T14:36:09.606Z,2.58
2023-04-15T14:38:48.492Z,2.65
2023-04-15T14:41:16.331Z,2.38
2023-04-15T14:43:49.359Z,2.92
2023-04-15T14:46:22.532Z,2.50
2023-04-15T14:48:56.446Z,2.65
2023-04-15T14:51:23.440Z,2.35
2023-04-15T14:53:56.433Z,2.40
2023-04-15T14:56:23.284Z,2.60
2023-04-15T14:58:57.385Z,2.47
2023-04-15T15:01:24.180Z,2.17
2023-04-15T15:03:57.520Z,2.00
2023-04-15T15:06:30.446Z,2.00
2023-04-15T15:08:57.266Z,2.40
2023-04-15T15:11:30.459Z,2.30
2023-04-15T15:13:57.439Z,2.22
2023-04-15T15:16:31.382Z,1.70
2023-04-15T15:18:58.249Z,2.47
2023-04-15T15:21:31.491Z,2.50
2023-04-15T15:23:58.339Z,2.10
2023-04-15T15:26:31.502Z,1.95
2023-04-15T15:29:05.529Z,1.92
2023-04-15T15:31:39.489Z,2.20
2023-04-15T15:34:12.420Z,2.15
2023-04-15T15:36:39.184Z,1.80
2023-04-15T15:39:12.498Z,2.03
2023-04-15T15:41:39.206Z,1.85
2023-04-15T15:44:19.448Z,2.08
2023-04-15T15:46:46.469Z,2.13
2023-04-15T15:49:20.420Z,2.70
2023-04-15T15:51:47.255Z,2.33
2023-04-15T15:54:20.421Z,2.03
2023-04-15T15:56:47.297Z,2.13
2023-04-15T15:59:20.459Z,1.92
2023-04-15T16:01:48.516Z,2.00
2023-04-15T16:04:22.732Z,2.00
2023-04-15T16:06:56.479Z,2.30
2023-04-15T16:09:23.219Z,2.10
2023-04-15T16:11:56.398Z,2.28
2023-04-15T16:14:25.378Z,11.85
2023-04-15T16:16:59.436Z,2.67
2023-04-15T16:19:26.236Z,2.20
2023-04-15T16:22:00.431Z,2.13
2023-04-15T16:24:27.787Z,2.30
2023-04-15T16:27:01.410Z,2.60
2023-04-15T16:29:28.773Z,2.53
2023-04-15T16:32:02.525Z,3.00
2023-04-15T16:34:29.395Z,2.60
2023-04-15T16:37:02.449Z,3.08
2023-04-15T16:39:35.427Z,3.13
2023-04-15T16:42:09.492Z,2.53
2023-04-15T16:44:42.513Z,2.67
2023-04-15T16:47:11.526Z,2.85
2023-04-15T16:49:45.468Z,2.10
2023-04-15T16:52:12.213Z,3.42
2023-04-15T16:54:48.523Z,2.90
2023-04-15T16:57:15.303Z,2.38
2023-04-15T16:59:48.474Z,3.00
2023-04-15T17:02:21.745Z,2.60
2023-04-15T17:04:55.466Z,3.22
2023-04-15T17:07:22.230Z,2.60
2023-04-15T17:09:55.547Z,3.38
2023-04-15T17:12:22.434Z,2.97
2023-04-15T17:14:49.196Z,3.10
2023-04-15T17:17:23.674Z,3.35
2023-04-15T17:19:50.541Z,3.35
2023-04-15T17:22:23.467Z,3.03
2023-04-15T17:24:50.570Z,5.10
2023-04-15T17:27:23.478Z,12.38
2023-04-15T17:29:50.136Z,2.70
2023-04-15T17:32:23.537Z,2.90
2023-04-15T17:34:51.515Z,3.08
2023-04-15T17:37:25.438Z,2.67
2023-04-15T17:39:52.482Z,3.28
2023-04-15T17:42:25.428Z,3.42
2023-04-15T17:45:05.452Z,3.35
2023-04-15T17:47:38.628Z,3.70
2023-04-15T17:50:12.506Z,3.60
2023-04-15T17:52:39.330Z,3.33
2023-04-15T17:55:13.548Z,4.05
2023-04-15T17:57:40.513Z,3.42
2023-04-15T18:00:16.553Z,3.78
2023-04-15T18:02:43.563Z,3.92
2023-04-15T18:05:17.625Z,3.78
2023-04-15T18:07:44.891Z,4.47
2023-04-15T18:10:12.015Z,8.05
2023-04-15T18:12:45.517Z,7.28
2023-04-15T18:15:12.460Z,4.47
2023-04-15T18:17:45.562Z,4.35
2023-04-15T18:20:13.151Z,3.90
2023-04-15T18:22:46.533Z,3.92
2023-04-15T18:25:13.588Z,4.55
2023-04-15T18:27:47.560Z,4.03
2023-04-15T18:30:14.364Z,4.00
2023-04-15T18:32:48.719Z,4.00
2023-04-15T18:35:17.368Z,3.80
2023-04-15T18:37:50.505Z,4.70
2023-04-15T18:40:23.552Z,3.85
2023-04-15T18:42:56.595Z,4.30
2023-04-15T18:45:31.182Z,4.32
2023-04-15T18:48:04.594Z,4.40
2023-04-15T18:50:37.491Z,4.50
2023-04-15T18:53:04.285Z,4.30
2023-04-15T18:55:38.568Z,5.18
2023-04-15T18:58:06.556Z,4.20
2023-04-15T19:00:45.561Z,4.90
2023-04-15T19:03:12.398Z,5.10
2023-04-15T19:05:46.621Z,5.18
2023-04-15T19:08:13.574Z,5.20
2023-04-15T19:10:47.671Z,5.55
2023-04-15T19:13:20.502Z,5.38
2023-04-15T19:15:53.575Z,5.32
2023-04-15T19:18:28.621Z,5.10
2023-04-15T19:20:56.836Z,5.55
2023-04-15T19:23:30.523Z,5.10
2023-04-15T19:25:57.683Z,5.30
2023-04-15T19:28:31.539Z,5.43
2023-04-15T19:30:58.796Z,5.50
2023-04-15T19:33:37.505Z,6.57
2023-04-15T19:36:12.558Z,5.30
2023-04-15T19:38:45.536Z,6.97
2023-04-15T19:41:12.328Z,6.97
2023-04-15T19:43:52.669Z,5.85
2023-04-15T19:46:27.212Z,6.00
2023-04-15T19:49:02.567Z,6.65
2023-04-15T19:51:29.859Z,6.38
2023-04-15T19:54:03.524Z,6.90
2023-04-15T19:56:31.737Z,6.95
2023-04-15T19:59:07.882Z,6.32
2023-04-15T20:01:34.777Z,7.05
2023-04-15T20:04:09.675Z,6.68
2023-04-15T20:06:43.617Z,7.68
2023-04-15T20:09:11.404Z,7.53
2023-04-15T20:12:46.094Z,6.43
2023-04-15T20:14:37.513Z,6.82
2023-04-15T20:17:10.638Z,7.15
2023-04-15T20:19:37.413Z,6.53
2023-04-15T20:22:10.644Z,7.05
2023-04-15T20:24:37.485Z,7.30
2023-04-15T20:27:10.711Z,7.40
2023-04-15T20:29:38.117Z,6.75
2023-04-15T20:32:05.166Z,8.10
2023-04-15T20:34:38.533Z,7.32
2023-04-15T20:37:05.817Z,6.78
2023-04-15T20:39:38.563Z,6.35
2023-04-15T20:42:05.325Z,7.10
2023-04-15T20:44:38.631Z,7.18
2023-04-15T20:47:12.705Z,7.18
2023-04-15T20:49:46.536Z,7.07
2023-04-15T20:52:19.591Z,7.25
2023-04-15T20:54:53.717Z,6.40
2023-04-15T20:57:20.629Z,6.85
2023-04-15T20:59:53.672Z,7.03
2023-04-15T21:02:20.488Z,6.90
2023-04-15T21:04:53.563Z,6.75
2023-04-15T21:07:26.641Z,7.05
2023-04-15T21:09:53.409Z,7.50
2023-04-15T21:12:26.551Z,7.30
2023-04-15T21:14:53.384Z,6.97
2023-04-15T21:17:26.584Z,7.63
2023-04-15T21:19:53.418Z,7.35
2023-04-15T21:22:26.679Z,8.50
2023-04-15T21:24:53.516Z,7.22
2023-04-15T21:27:26.597Z,8.30
2023-04-15T21:29:53.393Z,7.85
2023-04-15T21:32:26.658Z,8.35
2023-04-15T21:34:53.425Z,8.85
2023-04-15T21:37:20.210Z,8.18
2023-04-15T21:39:53.592Z,8.48
2023-04-15T21:42:20.407Z,8.30
2023-04-15T21:44:53.627Z,8.65
2023-04-15T21:47:27.130Z,8.48
2023-04-15T21:50:00.626Z,9.57
2023-04-15T21:52:27.407Z,9.15
2023-04-15T21:55:00.610Z,10.15
2023-04-15T21:57:27.428Z,8.57
2023-04-15T22:00:00.612Z,10.00
2023-04-15T22:02:27.660Z,9.60
2023-04-15T22:05:00.638Z,9.40
2023-04-15T22:07:27.380Z,9.32
2023-04-15T22:10:00.615Z,10.88
2023-04-15T22:12:33.560Z,11.63
2023-04-15T22:15:07.579Z,10.25
2023-04-15T22:17:40.714Z,10.98
2023-04-15T22:20:08.331Z,10.20
2023-04-15T22:22:48.703Z,10.95
2023-04-15T22:25:21.299Z,11.93
2023-04-15T22:27:54.632Z,12.55
2023-04-15T22:30:21.566Z,11.40
2023-04-15T22:33:01.681Z,11.05
2023-04-15T22:35:28.619Z,11.35
2023-04-15T22:38:01.661Z,13.48
2023-04-15T22:40:29.138Z,12.32
2023-04-15T22:42:55.953Z,13.60
2023-04-15T22:45:29.585Z,11.98
2023-04-15T22:48:03.007Z,12.32
2023-04-15T22:50:36.605Z,12.00
2023-04-15T22:53:03.339Z,12.70
2023-04-15T22:55:36.579Z,11.98
2023-04-15T22:58:03.433Z,12.25
2023-04-15T23:00:36.590Z,11.88
2023-04-15T23:03:03.452Z,12.68
2023-04-15T23:05:36.741Z,12.18
2023-04-15T23:08:03.531Z,12.68
2023-04-15T23:10:36.636Z,12.40
2023-04-15T23:13:09.641Z,13.32
2023-04-15T23:15:43.707Z,13.10
2023-04-15T23:18:10.706Z,14.38
2023-04-15T23:20:43.705Z,13.20
2023-04-15T23:23:16.694Z,14.43
2023-04-15T23:25:49.843Z,14.77
2023-04-15T23:28:22.643Z,13.55
2023-04-15T23:30:50.327Z,13.60
2023-04-15T23:33:23.680Z,14.52
2023-04-15T23:35:50.766Z,13.88
2023-04-15T23:38:23.694Z,14.93
2023-04-15T23:40:53.357Z,14.65
2023-04-15T23:43:26.656Z,13.73
2023-04-15T23:45:59.807Z,15.27
2023-04-15T23:48:39.613Z,15.80
2023-04-15T23:51:13.733Z,16.38
2023-04-15T23:53:40.856Z,17.08
2023-04-15T23:56:14.697Z,16.48
2023-04-15T23:58:48.177Z,16.83
